Time;durP1;ratioP1;P1;durP2;ratioP2;P2;SDS_P1;SDS_P2;PMS_P1;PMS_P2;Temp;Humidity;BMP_temperature;BMP_pressure;BME280_temperature;BME280_humidity;BME280_pressure;Samples;Min_cycle;Max_cycle;Signal;HPM_P1;HPM_P2
2023/04/24 00:00:05;;;;;;;58.30;26.50;;;;;;;10.53;70.62;99374.01;78014;1301;3068868;-63
2023/04/24 00:02:33;;;;;;;67.80;30.30;;;;;;;10.54;70.31;99375.88;79254;1301;3013014;-60
2023/04/24 00:05:01;;;;;;;63.40;30.60;;;;;;;10.51;70.08;99374.82;78068;1300;3056394;-60
2023/04/24 00:07:29;;;;;;;55.90;26.70;;;;;;;10.46;70.23;99374.13;79258;1300;3018837;-59
2023/04/24 00:09:56;;;;;;;51.40;25.00;;;;;;;10.44;70.08;99376.13;79251;1300;3011962;-60
2023/04/24 00:12:25;;;;;;;48.70;22.10;;;;;;;10.32;70.74;99376.13;78136;1300;3051949;-60
2023/04/24 00:14:51;;;;;;;37.70;21.50;;;;;;;10.25;71.00;99374.98;79217;1301;3014210;-63
2023/04/24 00:17:20;;;;;;;48.60;20.50;;;;;;;10.18;71.43;99372.05;79309;1296;3013172;-61
2023/04/24 00:19:50;;;;;;;45.30;19.70;;;;;;;10.18;71.29;99374.88;78039;1300;3056105;-58
2023/04/24 00:22:17;;;;;;;41.80;18.90;;;;;;;10.19;71.26;99372.85;79289;1301;3011643;-61
2023/04/24 00:24:44;;;;;;;37.70;18.40;;;;;;;10.18;71.31;99379.21;79223;1300;3012152;-60
2023/04/24 00:27:11;;;;;;;44.30;19.50;;;;;;;10.16;71.41;99378.69;78159;1300;3053495;-60
2023/04/24 00:29:38;;;;;;;45.10;21.70;;;;;;;10.16;71.05;99377.24;79283;1301;3013740;-59
2023/04/24 00:32:04;;;;;;;43.70;19.40;;;;;;;10.15;71.08;99380.81;79270;1300;3011809;-57
2023/04/24 00:34:34;;;;;;;50.80;21.90;;;;;;;10.08;71.25;99375.64;78100;1300;3056324;-58
2023/04/24 00:37:01;;;;;;;37.80;13.70;;;;;;;10.05;71.63;99376.34;79174;1295;3018602;-59
2023/04/24 00:39:27;;;;;;;42.50;17.40;;;;;;;10.58;70.27;99377.69;79159;1301;3011600;-59
2023/04/24 00:41:56;;;;;;;37.70;18.00;;;;;;;11.19;68.20;99376.72;78071;1300;3028823;-59
2023/04/24 00:44:23;;;;;;;41.60;19.10;;;;;;;11.28;67.23;99382.80;79066;1298;3014565;-59
2023/04/24 00:46:51;;;;;;;44.80;19.30;;;;;;;11.18;67.27;99386.25;79219;1300;3013349;-56
2023/04/24 00:49:20;;;;;;;45.10;17.40;;;;;;;10.99;67.59;99386.23;77937;1301;3056407;-59
2023/04/24 00:51:47;;;;;;;35.70;16.60;;;;;;;10.78;67.98;99388.55;79352;1298;3011926;-55
2023/04/24 00:54:13;;;;;;;42.70;17.70;;;;;;;10.61;68.69;99389.08;79188;1295;3013125;-60
2023/04/24 00:56:41;;;;;;;34.40;16.50;;;;;;;10.56;69.09;99392.74;77940;1303;3053127;-62
2023/04/24 00:59:09;;;;;;;33.40;14.50;;;;;;;10.46;69.32;99390.75;79220;1300;3013598;-58
2023/04/24 01:01:35;;;;;;;30.70;14.50;;;;;;;10.35;69.48;99388.17;79264;1295;3011579;-59
2023/04/24 01:04:07;;;;;;;28.90;11.90;;;;;;;10.32;69.31;99389.08;78020;1300;3055966;-58
2023/04/24 01:06:33;;;;;;;22.20;10.90;;;;;;;10.29;69.71;99386.66;79273;1300;3012855;-60
2023/04/24 01:09:03;;;;;;;25.40;10.90;;;;;;;10.26;69.82;99383.11;78655;1302;3011626;-59
2023/04/24 01:11:30;;;;;;;22.20;9.40;;;;;;;10.19;69.84;99382.66;79333;1297;3014798;-59
2023/04/24 01:13:56;;;;;;;20.50;8.10;;;;;;;10.13;69.96;99380.61;79007;1305;3011321;-61
2023/04/24 01:16:24;;;;;;;19.60;8.70;;;;;;;10.11;70.08;99381.62;78014;1299;3068379;-58
2023/04/24 01:18:51;;;;;;;17.30;7.80;;;;;;;10.06;70.26;99376.13;79197;1301;3019609;-56
2023/04/24 01:21:19;;;;;;;14.30;7.20;;;;;;;10.07;70.24;99374.85;79279;1298;3011938;-59
2023/04/24 01:23:47;;;;;;;12.70;5.90;;;;;;;10.01;70.32;99372.75;78062;1299;3053480;-59
2023/04/24 01:26:15;;;;;;;12.10;6.90;;;;;;;9.99;70.05;99372.48;79210;1309;3021226;-60
2023/04/24 01:28:41;;;;;;;12.00;6.30;;;;;;;9.97;70.17;99378.23;79298;1301;3011418;-57
2023/04/24 01:31:09;;;;;;;14.40;5.90;;;;;;;9.96;70.41;99374.11;78082;1296;3069124;-60
2023/04/24 01:33:36;;;;;;;9.80;5.30;;;;;;;9.98;70.11;99369.21;79245;1297;3014044;-60
2023/04/24 01:36:03;;;;;;;11.60;5.20;;;;;;;9.98;70.07;99372.05;78954;1296;3011490;-59
2023/04/24 01:38:31;;;;;;;8.00;4.80;;;;;;;10.00;69.97;99367.04;77987;1299;3028986;-61
2023/04/24 01:40:59;;;;;;;9.60;4.80;;;;;;;9.98;70.30;99365.07;79186;1302;3012809;-58
2023/04/24 01:43:26;;;;;;;10.20;4.90;;;;;;;9.95;70.32;99362.41;79218;1301;3012971;-59
2023/04/24 01:45:54;;;;;;;12.90;5.10;;;;;;;9.89;70.18;99361.52;77972;1301;3067726;-61
2023/04/24 01:48:20;;;;;;;11.60;5.40;;;;;;;9.92;70.03;99360.67;79305;1295;3018478;-59
2023/04/24 01:50:47;;;;;;;13.80;5.70;;;;;;;9.96;69.88;99356.80;79191;1301;3012823;-61
2023/04/24 01:53:15;;;;;;;10.40;5.10;;;;;;;9.98;69.85;99359.98;77917;1301;3026941;-61
2023/04/24 01:55:42;;;;;;;10.00;4.80;;;;;;;9.99;69.65;99357.10;79296;1295;3013365;-58
2023/04/24 01:58:09;;;;;;;8.90;4.70;;;;;;;10.00;69.49;99359.50;78998;1303;3012054;-59
2023/04/24 02:00:36;;;;;;;8.70;5.30;;;;;;;10.05;69.19;99360.09;78069;1302;3068772;-59
2023/04/24 02:03:03;;;;;;;9.40;4.60;;;;;;;10.06;69.23;99362.62;79242;1301;3013104;-58
2023/04/24 02:05:30;;;;;;;12.50;5.20;;;;;;;10.07;69.01;99361.55;79254;1302;3011530;-61
2023/04/24 02:07:57;;;;;;;7.70;4.80;;;;;;;10.05;69.16;99361.49;77974;1300;3028711;-59
2023/04/24 02:10:25;;;;;;;8.20;5.10;;;;;;;10.06;69.09;99359.33;79343;1301;3013490;-60
2023/04/24 02:12:51;;;;;;;8.40;5.00;;;;;;;10.02;68.89;99360.39;79306;1300;3013271;-58
2023/04/24 02:15:19;;;;;;;8.80;4.70;;;;;;;10.03;68.86;99360.23;78239;1300;3069201;-58
2023/04/24 02:17:46;;;;;;;9.00;5.30;;;;;;;9.97;69.14;99355.33;79546;1294;3013394;-57
2023/04/24 02:20:12;;;;;;;10.70;5.30;;;;;;;9.92;69.41;99355.77;79386;1300;3011555;-57
2023/04/24 02:22:40;;;;;;;9.00;5.00;;;;;;;9.89;69.17;99358.91;78210;1295;3025022;-58
2023/04/24 02:25:08;;;;;;;8.40;4.60;;;;;;;9.84;69.28;99359.23;79369;1308;3013388;-58
2023/04/24 02:27:35;;;;;;;8.60;4.40;;;;;;;9.85;69.31;99361.25;79424;1294;3011843;-61
2023/04/24 02:30:03;;;;;;;8.90;4.70;;;;;;;9.89;69.08;99358.36;78113;1300;3069277;-60
2023/04/24 02:32:30;;;;;;;11.10;4.60;;;;;;;9.91;68.89;99358.27;79301;1294;3014563;-60
2023/04/24 02:34:57;;;;;;;8.30;4.20;;;;;;;9.93;69.39;99355.86;79274;1295;3011679;-59
2023/04/24 02:37:25;;;;;;;10.30;4.60;;;;;;;10.00;69.10;99358.81;77909;1299;3052728;-58
2023/04/24 02:39:52;;;;;;;6.70;4.70;;;;;;;9.99;69.11;99360.09;79428;1300;3012949;-61
2023/04/24 02:42:18;;;;;;;11.80;5.10;;;;;;;10.02;68.98;99361.30;79378;1298;3011992;-62
2023/04/24 02:44:46;;;;;;;9.40;4.30;;;;;;;10.03;68.81;99362.62;78180;1300;3028084;-60
2023/04/24 02:47:12;;;;;;;9.90;4.10;;;;;;;10.05;68.82;99361.11;79376;1298;3013472;-58
2023/04/24 02:49:39;;;;;;;9.30;3.80;;;;;;;10.08;68.74;99364.79;79415;1299;3012009;-61
2023/04/24 02:52:07;;;;;;;7.80;4.50;;;;;;;10.07;68.91;99365.39;78142;1299;3028617;-60
2023/04/24 02:54:34;;;;;;;9.90;4.60;;;;;;;10.08;68.79;99365.48;79477;1294;3012905;-59
2023/04/24 02:57:01;;;;;;;7.90;4.40;;;;;;;10.06;69.02;99364.57;79405;1300;3011655;-60
2023/04/24 02:59:29;;;;;;;7.80;5.60;;;;;;;10.06;69.06;99368.41;78204;1295;3028246;-60
2023/04/24 03:01:55;;;;;;;7.40;4.50;;;;;;;10.08;68.98;99362.70;79277;1295;3013061;-58
2023/04/24 03:04:22;;;;;;;9.10;4.40;;;;;;;10.05;69.22;99363.05;79447;1298;3011614;-61
2023/04/24 03:06:52;;;;;;;12.00;6.20;;;;;;;10.08;69.32;99365.86;78071;1299;3026050;-57
2023/04/24 03:09:21;;;;;;;11.30;4.80;;;;;;;10.06;69.29;99364.94;79497;1298;3011612;-61
2023/04/24 03:11:50;;;;;;;11.60;5.40;;;;;;;10.03;68.83;99369.48;78934;1298;3013535;-59
2023/04/24 03:14:16;;;;;;;8.70;5.10;;;;;;;9.99;69.17;99369.52;79446;1298;3018721;-60
2023/04/24 03:16:43;;;;;;;10.60;5.00;;;;;;;9.97;69.06;99372.98;79388;1294;3011628;-61
2023/04/24 03:19:11;;;;;;;11.00;5.00;;;;;;;9.95;69.25;99377.97;78003;1300;3028810;-61
2023/04/24 03:21:46;;;;;;;6.90;5.00;;;;;;;9.97;69.45;99375.45;76804;1295;3013151;-57
2023/04/24 03:24:13;;;;;;;10.40;4.90;;;;;;;10.00;69.31;99377.20;79369;1294;3013072;-63
2023/04/24 03:26:40;;;;;;;7.40;4.60;;;;;;;9.95;69.21;99377.49;79351;1295;3011661;-60
2023/04/24 03:29:34;;;;;;;12.10;5.00;;;;;;;10.01;69.17;99385.17;78183;1299;3052582;-59
2023/04/24 03:32:01;;;;;;;6.70;4.40;;;;;;;10.09;68.84;99383.31;79472;1298;3012848;-59
2023/04/24 03:34:28;;;;;;;9.20;4.70;;;;;;;10.07;68.96;99384.27;79211;1300;3011656;-59
2023/04/24 03:36:57;;;;;;;8.80;4.50;;;;;;;10.12;68.88;99383.98;78126;1300;3057582;-63
2023/04/24 03:39:25;;;;;;;9.80;4.50;;;;;;;10.18;68.84;99388.51;79399;1295;3011996;-60
2023/04/24 03:41:56;;;;;;;12.80;4.80;;;;;;;10.21;68.69;99387.31;78206;1298;3050944;-60
2023/04/24 03:44:27;;;;;;;10.80;5.60;;;;;;;10.17;68.97;99388.41;79440;1295;3013676;-60
2023/04/24 03:46:55;;;;;;;7.10;4.60;;;;;;;10.24;68.97;99389.91;78087;1300;3053545;-60
2023/04/24 03:49:23;;;;;;;7.50;4.80;;;;;;;10.32;68.55;99389.43;79440;1294;3013467;-58
2023/04/24 03:51:50;;;;;;;9.50;4.70;;;;;;;10.35;68.08;99388.92;79175;1295;3011696;-60
2023/04/24 03:54:24;;;;;;;7.00;4.20;;;;;;;10.35;68.14;99390.66;78258;1294;3049764;-60
2023/04/24 03:56:51;;;;;;;9.00;5.00;;;;;;;10.37;67.82;99391.43;79371;1295;3014670;-60
2023/04/24 03:59:18;;;;;;;8.90;4.90;;;;;;;10.43;67.79;99394.79;79449;1300;3011702;-62
2023/04/24 04:01:49;;;;;;;10.80;5.40;;;;;;;10.45;67.58;99392.69;78067;1300;3051947;-59
2023/04/24 04:04:17;;;;;;;7.20;5.10;;;;;;;10.50;67.76;99396.25;79418;1294;3013124;-62
2023/04/24 04:06:44;;;;;;;8.10;4.50;;;;;;;10.54;67.42;99396.70;79394;1295;3013201;-58
2023/04/24 04:09:13;;;;;;;7.50;4.80;;;;;;;10.57;67.28;99398.06;78308;1299;3050012;-60
2023/04/24 04:11:40;;;;;;;9.60;5.30;;;;;;;10.61;66.80;99398.05;79382;1296;3011712;-57
2023/04/24 04:14:06;;;;;;;8.50;5.10;;;;;;;10.65;66.77;99397.81;79206;1300;3011482;-59
2023/04/24 04:16:36;;;;;;;12.70;5.50;;;;;;;10.65;66.69;99398.14;78300;1297;3026349;-61
2023/04/24 04:19:03;;;;;;;7.60;5.30;;;;;;;10.67;66.13;99402.73;79512;1295;3013521;-58
2023/04/24 04:21:31;;;;;;;8.20;5.20;;;;;;;10.69;66.05;99399.61;79403;1294;3011796;-60
2023/04/24 04:24:07;;;;;;;9.20;5.00;;;;;;;10.74;65.92;99401.42;78098;1298;3049821;-61
2023/04/24 04:26:38;;;;;;;7.90;4.50;;;;;;;10.80;65.91;99398.41;79374;1300;3013084;-61
2023/04/24 04:29:10;;;;;;;8.10;5.40;;;;;;;10.83;65.73;99398.08;78219;1299;3049764;-60
2023/04/24 04:31:40;;;;;;;12.20;5.60;;;;;;;10.85;65.55;99400.06;79277;1299;3012791;-61
2023/04/24 04:34:12;;;;;;;9.70;5.80;;;;;;;10.85;65.86;99398.15;78251;1299;3052396;-62
2023/04/24 04:36:39;;;;;;;11.50;6.30;;;;;;;10.89;65.50;99401.36;79482;1295;3013464;-62
2023/04/24 04:39:28;;;;;;;8.70;5.80;;;;;;;10.93;65.34;99400.63;78339;1300;3057334;-61
2023/04/24 04:42:02;;;;;;;9.80;6.10;;;;;;;11.00;65.16;99401.04;78209;1297;3049500;-62
2023/04/24 04:44:35;;;;;;;11.30;6.40;;;;;;;11.05;64.59;99396.48;79355;1294;3013133;-60
2023/04/24 04:47:08;;;;;;;10.20;5.90;;;;;;;11.11;64.53;99397.35;78280;1294;3050587;-58
2023/04/24 04:49:38;;;;;;;10.30;5.70;;;;;;;11.19;64.52;99395.30;79202;1298;3011600;-61
2023/04/24 04:52:09;;;;;;;10.80;6.00;;;;;;;11.24;63.97;99396.89;78086;1299;3051218;-59
2023/04/24 04:54:36;;;;;;;9.00;5.70;;;;;;;11.28;63.41;99393.83;79430;1294;3013151;-61
2023/04/24 04:57:03;;;;;;;10.60;5.40;;;;;;;11.35;63.21;99396.19;79357;1295;3011882;-61
2023/04/24 04:59:31;;;;;;;9.50;5.50;;;;;;;11.43;63.02;99393.20;78296;1298;3049244;-60
2023/04/24 05:02:03;;;;;;;13.70;6.00;;;;;;;11.53;62.95;99395.14;79252;1294;3011406;-59
2023/04/24 05:04:32;;;;;;;8.30;5.80;;;;;;;11.61;62.41;99395.55;78148;1299;3049596;-61
2023/04/24 05:06:58;;;;;;;7.50;4.90;;;;;;;11.65;61.96;99390.17;79428;1300;3013765;-58
2023/04/24 05:09:27;;;;;;;9.90;5.80;;;;;;;11.71;61.75;99390.14;79627;1295;3013060;-59
2023/04/24 05:11:58;;;;;;;9.70;5.20;;;;;;;11.80;61.72;99386.23;78148;1295;3051568;-62
2023/04/24 05:14:25;;;;;;;10.40;5.00;;;;;;;11.86;61.85;99384.91;79235;1297;3013089;-61
2023/04/24 05:16:52;;;;;;;8.20;5.00;;;;;;;11.94;61.30;99386.36;79451;1300;3011883;-62
2023/04/24 05:19:21;;;;;;;8.70;4.60;;;;;;;12.01;61.34;99385.73;78160;1298;3049860;-63
2023/04/24 05:21:48;;;;;;;9.20;4.90;;;;;;;12.09;61.30;99378.15;79337;1299;3013246;-60
2023/04/24 05:24:15;;;;;;;12.40;5.80;;;;;;;12.18;61.15;99381.08;79471;1298;3012128;-61
2023/04/24 05:26:46;;;;;;;9.70;5.40;;;;;;;12.24;61.30;99379.21;78424;1294;3051274;-62
2023/04/24 05:29:14;;;;;;;11.70;5.80;;;;;;;12.30;61.44;99380.08;79403;1297;3013188;-59
2023/04/24 05:31:44;;;;;;;10.10;5.70;;;;;;;12.38;61.64;99374.05;78887;1294;3013191;-59
2023/04/24 05:34:11;;;;;;;12.20;6.10;;;;;;;12.44;61.99;99375.74;79361;1300;3013764;-59
2023/04/24 05:36:41;;;;;;;9.40;5.70;;;;;;;12.50;62.23;99375.32;79366;1295;3011783;-60
2023/04/24 05:39:09;;;;;;;11.80;6.50;;;;;;;12.55;62.34;99373.77;78189;1300;3055649;-62
2023/04/24 05:41:35;;;;;;;10.30;6.00;;;;;;;12.58;62.18;99374.93;79391;1300;3012999;-59
2023/04/24 05:44:02;;;;;;;15.30;6.70;;;;;;;12.67;62.31;99371.50;79567;1298;3011688;-62
2023/04/24 05:46:30;;;;;;;10.60;6.40;;;;;;;12.75;62.10;99368.86;78099;1300;3026445;-59
2023/04/24 05:48:57;;;;;;;10.40;6.30;;;;;;;12.85;62.38;99371.64;79288;1300;3013040;-61
2023/04/24 05:51:24;;;;;;;10.60;6.60;;;;;;;12.92;62.20;99373.77;79146;1295;3013469;-60
2023/04/24 05:53:52;;;;;;;11.80;6.50;;;;;;;12.96;62.08;99368.76;77984;1300;3028943;-61
2023/04/24 05:56:18;;;;;;;11.20;6.00;;;;;;;13.01;61.68;99371.88;79290;1297;3013740;-61
2023/04/24 05:58:46;;;;;;;11.10;5.40;;;;;;;13.07;61.10;99372.37;79561;1294;3011593;-61
2023/04/24 06:01:14;;;;;;;10.00;4.80;;;;;;;13.14;61.34;99372.76;78207;1300;3049917;-59
2023/04/24 06:03:41;;;;;;;7.80;4.60;;;;;;;13.20;60.60;99370.71;79361;1296;3012414;-60
2023/04/24 06:06:08;;;;;;;12.50;5.50;;;;;;;13.29;60.69;99372.38;79396;1294;3011589;-61
2023/04/24 06:08:36;;;;;;;10.00;5.30;;;;;;;13.33;60.71;99373.14;78294;1299;3051913;-61
2023/04/24 06:11:03;;;;;;;11.00;5.10;;;;;;;13.33;60.97;99373.10;79457;1300;3013699;-61
2023/04/24 06:13:29;;;;;;;11.20;5.90;;;;;;;13.40;61.33;99368.89;79176;1294;3012009;-61
2023/04/24 06:16:17;;;;;;;13.40;5.10;;;;;;;13.50;61.28;99368.20;78139;1298;3049868;-60
2023/04/24 06:18:47;;;;;;;8.90;4.80;;;;;;;13.57;60.58;99366.08;79452;1295;3011745;-60
2023/04/24 06:21:17;;;;;;;9.30;4.90;;;;;;;13.67;60.87;99372.02;78942;1298;3011765;-62
2023/04/24 06:23:46;;;;;;;12.90;5.90;;;;;;;13.71;61.38;99372.08;79524;1298;3011549;-61
2023/04/24 06:26:12;;;;;;;10.40;5.80;;;;;;;13.79;61.68;99372.55;79399;1298;3012952;-59
2023/04/24 06:28:40;;;;;;;11.80;5.50;;;;;;;13.88;61.31;99372.89;78169;1298;3053145;-59
2023/04/24 06:31:07;;;;;;;9.30;4.70;;;;;;;13.97;60.75;99368.23;79302;1298;3012943;-61
2023/04/24 06:33:33;;;;;;;8.50;3.90;;;;;;;14.09;59.22;99365.33;79222;1295;3012094;-59
2023/04/24 06:36:01;;;;;;;9.50;4.50;;;;;;;14.20;58.78;99368.20;78197;1298;3026654;-61
2023/04/24 06:38:29;;;;;;;8.00;3.80;;;;;;;14.22;57.69;99371.20;79425;1300;3013266;-60
2023/04/24 06:40:56;;;;;;;9.20;3.70;;;;;;;14.35;57.69;99374.80;79484;1295;3013622;-61
2023/04/24 06:43:24;;;;;;;7.60;3.20;;;;;;;14.49;57.18;99379.19;78100;1295;3052723;-62
2023/04/24 06:45:50;;;;;;;9.50;3.60;;;;;;;14.61;56.94;99380.70;79523;1294;3013037;-60
2023/04/24 06:48:17;;;;;;;3.80;2.80;;;;;;;14.69;56.60;99380.81;79339;1298;3013115;-61
2023/04/24 06:50:46;;;;;;;7.20;2.60;;;;;;;14.78;55.66;99380.66;78326;1300;3029020;-60
2023/04/24 06:53:14;;;;;;;9.70;3.80;;;;;;;14.86;55.19;99383.02;79496;1299;3013096;-61
2023/04/24 06:55:40;;;;;;;8.60;3.50;;;;;;;14.93;55.68;99379.46;79444;1294;3012010;-60
2023/04/24 06:58:09;;;;;;;7.60;3.50;;;;;;;15.01;55.63;99380.92;78150;1295;3051483;-61
2023/04/24 07:00:35;;;;;;;8.50;3.80;;;;;;;15.09;55.29;99379.55;79530;1295;3013179;-61
2023/04/24 07:03:02;;;;;;;7.70;4.00;;;;;;;15.17;54.85;99378.92;79516;1295;3011585;-59
2023/04/24 07:05:31;;;;;;;14.80;4.40;;;;;;;15.22;55.24;99382.22;78615;1298;3050446;-60
2023/04/24 07:07:58;;;;;;;8.70;3.90;;;;;;;15.16;55.27;99377.45;79661;1299;3013743;-59
2023/04/24 07:10:26;;;;;;;11.50;3.40;;;;;;;15.29;54.87;99379.75;79440;1294;3011478;-60
2023/04/24 07:12:56;;;;;;;9.00;3.00;;;;;;;15.38;53.73;99373.70;78239;1294;3051061;-57
2023/04/24 07:15:23;;;;;;;10.80;2.40;;;;;;;15.47;53.31;99373.71;79461;1295;3013032;-59
2023/04/24 07:17:50;;;;;;;7.00;2.60;;;;;;;15.49;52.78;99369.25;79424;1295;3013550;-59
2023/04/24 07:20:17;;;;;;;10.90;2.90;;;;;;;15.49;52.27;99367.66;78143;1298;3050387;-58
2023/04/24 07:22:44;;;;;;;24.90;4.50;;;;;;;15.54;52.43;99367.26;79419;1300;3012885;-61
2023/04/24 07:25:11;;;;;;;23.60;5.20;;;;;;;15.67;52.24;99360.58;79527;1295;3011298;-58
2023/04/24 07:27:39;;;;;;;33.90;6.40;;;;;;;15.79;51.63;99361.35;78402;1294;3025784;-59
2023/04/24 07:30:06;;;;;;;42.80;7.20;;;;;;;15.80;51.03;99355.24;79707;1294;3013170;-59
2023/04/24 07:32:33;;;;;;;41.10;6.70;;;;;;;15.87;51.22;99356.95;79508;1294;3011933;-58
2023/04/24 07:35:01;;;;;;;23.10;4.80;;;;;;;15.89;51.20;99349.54;78242;1297;3050509;-58
2023/04/24 07:37:28;;;;;;;20.50;4.30;;;;;;;15.98;51.54;99348.27;79405;1297;3012968;-59
2023/04/24 07:39:55;;;;;;;14.60;4.00;;;;;;;16.13;51.64;99348.42;79248;1293;3012991;-59
2023/04/24 07:42:23;;;;;;;6.10;2.00;;;;;;;16.25;51.05;99344.55;78271;1297;3025685;-57
2023/04/24 07:44:50;;;;;;;9.90;2.50;;;;;;;16.23;49.17;99345.09;79487;1295;3013586;-59
2023/04/24 07:47:17;;;;;;;12.80;2.70;;;;;;;16.24;49.17;99346.18;79372;1295;3011916;-59
2023/04/24 07:49:45;;;;;;;9.10;1.70;;;;;;;16.33;49.02;99345.80;78235;1294;3050243;-59
2023/04/24 07:52:11;;;;;;;3.00;1.30;;;;;;;16.41;49.31;99342.65;79423;1294;3013387;-59
2023/04/24 07:54:38;;;;;;;9.80;1.50;;;;;;;16.35;47.09;99336.65;79478;1297;3011617;-59
2023/04/24 07:57:08;;;;;;;4.60;1.30;;;;;;;16.48;47.54;99333.59;78228;1297;3028961;-58
2023/04/24 07:59:34;;;;;;;5.10;1.20;;;;;;;16.64;48.12;99331.65;79512;1294;3013025;-59
2023/04/24 08:02:01;;;;;;;4.40;1.20;;;;;;;16.69;45.99;99331.34;79387;1294;3011670;-62
2023/04/24 08:04:29;;;;;;;7.30;1.80;;;;;;;16.69;46.62;99330.30;78254;1297;3050229;-64
2023/04/24 08:06:56;;;;;;;10.30;1.70;;;;;;;16.78;46.85;99328.98;79419;1297;3013080;-61
2023/04/24 08:09:23;;;;;;;5.50;1.80;;;;;;;16.84;46.64;99330.61;79299;1294;3013575;-61
2023/04/24 08:11:50;;;;;;;6.80;1.70;;;;;;;16.88;46.44;99323.55;78239;1295;3026800;-62
2023/04/24 08:14:17;;;;;;;4.90;1.70;;;;;;;16.88;45.96;99325.08;79625;1294;3012878;-62
2023/04/24 08:16:43;;;;;;;6.90;1.90;;;;;;;16.95;46.35;99317.95;79402;1293;3011515;-61
2023/04/24 08:19:11;;;;;;;5.90;1.40;;;;;;;17.00;46.71;99314.48;77984;1295;3026198;-61
2023/04/24 08:21:38;;;;;;;4.80;1.90;;;;;;;17.05;46.76;99306.05;79514;1294;3013597;-62
2023/04/24 08:24:07;;;;;;;6.20;1.50;;;;;;;17.09;46.56;99305.92;79404;1295;3011610;-60
2023/04/24 08:26:35;;;;;;;9.10;2.10;;;;;;;17.11;46.55;99303.23;78201;1294;3050847;-60
2023/04/24 08:29:01;;;;;;;6.70;1.50;;;;;;;17.18;46.11;99299.80;79527;1297;3012954;-60
2023/04/24 08:31:29;;;;;;;6.10;1.40;;;;;;;17.27;46.09;99302.71;79461;1293;3012753;-61
2023/04/24 08:33:56;;;;;;;5.50;1.50;;;;;;;17.41;46.22;99303.38;78365;1298;3026203;-60
2023/04/24 08:36:23;;;;;;;7.30;1.70;;;;;;;17.44;46.38;99305.94;79678;1297;3013021;-60
2023/04/24 08:38:50;;;;;;;6.10;2.30;;;;;;;17.51;46.59;99307.23;79439;1294;3011631;-61
2023/04/24 08:41:18;;;;;;;8.40;2.00;;;;;;;17.62;46.45;99304.09;78468;1294;3028718;-60
2023/04/24 08:43:47;;;;;;;6.70;1.90;;;;;;;17.69;46.13;99298.48;79528;1294;3012659;-60
2023/04/24 08:46:16;;;;;;;9.10;1.90;;;;;;;17.70;46.52;99295.06;78737;1296;3011765;-60
2023/04/24 08:48:43;;;;;;;7.70;2.00;;;;;;;17.75;46.62;99292.06;79478;1294;3013561;-61
2023/04/24 08:51:10;;;;;;;4.50;1.60;;;;;;;17.83;45.73;99294.41;79419;1295;3013921;-60
2023/04/24 08:53:38;;;;;;;8.70;2.10;;;;;;;17.89;45.58;99297.90;78233;1297;3052190;-61
2023/04/24 08:56:05;;;;;;;7.00;2.20;;;;;;;18.00;45.71;99297.45;79487;1297;3013061;-61
2023/04/24 08:58:32;;;;;;;5.50;1.80;;;;;;;18.05;46.37;99296.64;79226;1294;3011492;-61
2023/04/24 09:01:00;;;;;;;8.30;2.40;;;;;;;18.08;46.18;99298.59;78146;1300;3027055;-61
2023/04/24 09:03:28;;;;;;;8.00;2.30;;;;;;;18.31;45.95;99296.40;79381;1294;3012969;-62
2023/04/24 09:05:55;;;;;;;10.60;2.40;;;;;;;18.43;45.36;99297.84;79394;1295;3011668;-62
2023/04/24 09:08:24;;;;;;;7.60;1.90;;;;;;;18.58;45.43;99297.21;78262;1300;3052092;-62
2023/04/24 09:10:51;;;;;;;2.80;1.50;;;;;;;18.69;44.90;99297.45;79514;1299;3013865;-61
2023/04/24 09:13:19;;;;;;;5.10;2.10;;;;;;;18.88;44.79;99294.48;79523;1294;3011651;-62
2023/04/24 09:15:47;;;;;;;4.90;2.00;;;;;;;18.82;44.43;99292.39;78204;1299;3049900;-61
2023/04/24 09:18:14;;;;;;;7.80;2.40;;;;;;;18.80;44.85;99293.17;79240;1300;3013241;-62
2023/04/24 09:21:03;;;;;;;6.30;2.00;;;;;;;18.83;44.60;99287.52;79344;1299;3011818;-63
2023/04/24 09:23:31;;;;;;;8.20;2.40;;;;;;;18.92;44.14;99284.59;78189;1300;3053159;-62
2023/04/24 09:26:00;;;;;;;10.50;2.00;;;;;;;19.03;43.94;99284.88;79514;1294;3013163;-59
2023/04/24 09:28:31;;;;;;;3.10;1.60;;;;;;;19.05;43.91;99281.65;79460;1295;3011583;-61
2023/04/24 09:31:17;;;;;;;6.20;2.00;;;;;;;19.01;44.01;99280.14;78230;1299;3049546;-62
2023/04/24 09:33:59;;;;;;;6.50;2.10;;;;;;;18.95;43.82;99282.15;78156;1295;3053002;-60
2023/04/24 09:36:41;;;;;;;10.50;2.00;;;;;;;18.81;43.96;99282.35;78250;1295;3049780;-61
2023/04/24 09:39:19;;;;;;;9.00;1.70;;;;;;;18.82;44.04;99283.69;78353;1294;3053294;-61
2023/04/24 09:41:52;;;;;;;6.50;1.40;;;;;;;18.80;43.27;99282.67;78122;1298;3052716;-61
2023/04/24 09:44:22;;;;;;;6.60;1.70;;;;;;;18.74;43.27;99282.02;79368;1296;3012482;-60
2023/04/24 09:46:57;;;;;;;7.20;2.10;;;;;;;18.69;43.78;99285.06;78087;1295;3051491;-65
2023/04/24 09:49:29;;;;;;;10.40;2.40;;;;;;;18.68;43.12;99283.48;78121;1300;3057163;-61
2023/04/24 09:52:07;;;;;;;4.60;1.10;;;;;;;18.55;41.59;99285.16;79372;1296;3012947;-62
2023/04/24 09:54:36;;;;;;;8.00;1.40;;;;;;;18.61;40.67;99281.91;78047;1296;3053649;-62
2023/04/24 09:57:03;;;;;;;4.80;1.40;;;;;;;18.73;40.18;99277.48;79357;1298;3013065;-61
2023/04/24 09:59:29;;;;;;;8.10;1.80;;;;;;;18.93;39.17;99275.89;79374;1299;3011940;-63
2023/04/24 10:01:58;;;;;;;7.50;1.00;;;;;;;19.09;39.83;99271.37;78081;1299;3069627;-61
2023/04/24 10:04:26;;;;;;;9.40;1.50;;;;;;;19.20;40.05;99268.83;79469;1296;3013091;-61
2023/04/24 10:06:55;;;;;;;6.00;1.60;;;;;;;19.09;40.46;99267.58;79378;1296;3012928;-61
2023/04/24 10:09:24;;;;;;;8.30;1.60;;;;;;;19.13;41.39;99262.45;78130;1296;3054010;-61
2023/04/24 10:11:53;;;;;;;6.00;1.50;;;;;;;19.10;42.18;99256.17;79330;1300;3013788;-61
2023/04/24 10:14:22;;;;;;;4.30;1.40;;;;;;;19.02;42.65;99260.53;78362;1300;3026791;-62
2023/04/24 10:16:50;;;;;;;5.20;1.40;;;;;;;19.02;42.77;99256.29;79498;1294;3013849;-61
2023/04/24 10:19:19;;;;;;;5.50;1.40;;;;;;;19.01;43.40;99259.39;78982;1295;3011579;-61
2023/04/24 10:21:46;;;;;;;6.00;1.60;;;;;;;19.00;43.31;99255.02;79429;1294;3018787;-61
2023/04/24 10:24:14;;;;;;;4.70;1.70;;;;;;;19.02;43.50;99256.37;79486;1298;3011757;-60
2023/04/24 10:26:43;;;;;;;9.10;1.70;;;;;;;19.05;44.07;99252.20;78383;1295;3052971;-60
2023/04/24 10:29:12;;;;;;;6.10;1.40;;;;;;;19.10;44.17;99251.91;79467;1300;3013724;-61
2023/04/24 10:31:41;;;;;;;5.30;1.50;;;;;;;19.20;44.28;99250.77;78940;1298;3011726;-61
2023/04/24 10:34:09;;;;;;;7.70;1.80;;;;;;;19.11;44.29;99248.99;79730;1294;3013032;-62
2023/04/24 10:36:38;;;;;;;4.00;1.40;;;;;;;19.06;44.78;99249.71;79378;1294;3011503;-63
2023/04/24 10:39:10;;;;;;;4.40;1.60;;;;;;;19.21;44.60;99250.30;78119;1299;3056330;-61
2023/04/24 10:41:37;;;;;;;7.20;1.80;;;;;;;19.28;44.97;99246.42;79475;1294;3011854;-63
2023/04/24 10:44:06;;;;;;;3.40;1.70;;;;;;;19.34;44.77;99243.87;78179;1297;3026167;-61
2023/04/24 10:46:33;;;;;;;4.20;1.80;;;;;;;19.28;44.85;99244.09;79556;1299;3012827;-61
2023/04/24 10:49:02;;;;;;;7.80;1.70;;;;;;;19.24;44.73;99249.29;79488;1294;3011671;-60
2023/04/24 10:51:50;;;;;;;5.40;1.80;;;;;;;19.36;44.31;99245.79;78030;1300;3068930;-60
2023/04/24 10:54:33;;;;;;;6.20;1.30;;;;;;;19.37;43.04;99245.33;78203;1299;3051328;-62
2023/04/24 10:57:30;;;;;;;9.70;1.70;;;;;;;19.31;42.53;99240.95;78146;1294;3057201;-59
2023/04/24 11:00:12;;;;;;;5.60;1.50;;;;;;;19.24;42.60;99232.55;78172;1300;3050148;-60
2023/04/24 11:02:47;;;;;;;7.00;1.50;;;;;;;19.36;42.40;99232.11;78147;1295;3053757;-61
2023/04/24 11:05:17;;;;;;;5.40;1.50;;;;;;;19.53;41.92;99230.42;79461;1299;3011940;-61
2023/04/24 11:08:11;;;;;;;11.10;2.00;;;;;;;19.60;41.87;99229.80;78215;1294;3052913;-61
2023/04/24 11:11:00;;;;;;;6.60;1.40;;;;;;;19.78;42.15;99232.09;78184;1294;3053398;-62
2023/04/24 11:13:54;;;;;;;11.10;1.90;;;;;;;19.92;41.54;99228.88;78230;1294;3068836;-59
2023/04/24 11:16:41;;;;;;;8.00;2.60;;;;;;;20.11;41.47;99228.94;78126;1298;3052286;-61
2023/04/24 11:19:16;;;;;;;10.60;2.00;;;;;;;20.41;42.57;99224.30;78161;1300;3057503;-60
2023/04/24 11:21:53;;;;;;;14.80;3.50;;;;;;;20.40;41.67;99223.09;78733;1296;3013178;-61